Kings Canyon National Pk, California
Current Conditions -  °F | °C
As of 6:56 PM on Thursday 18 Dec 2014 (Local Time) from KBIH Reporting Station
Clear Clear  
Wind Chill: 33°   Ceiling: Unl
Heat Index: 33°   Visibility: 10mi
Dew Point: 26°   Wind: 3mph
Humidity: 75%   Direction: 310°NW
Pressure: 30.18"   Gusts: NA
Location:  36.7872°N, 118.66°W
Report Text: KBIH 190256Z AUTO 31003KT 10SM CLR 01/M03 A3018 RMK AO2 SLP233 T00061033 53012
Loading
Personal Weather Stations






























Interactive Weather Map New forecast layout! Learn more

10-Day Weather Forecast

Advertisements
Track Severe Weather on mobile